Dripping Springs' Hourly Summary for Wednesday, April 19, 2017
Hour Temp
(f)
RH
(%)
Solar Rad.
(MJ/m2)
Rainfall
(in)
Wind
(mph)
4/19/2017 12:00 AM 65 100 0 0 3.82
4/19/2017 1:00 AM 66 100 0 0 4.05
4/19/2017 2:00 AM 66 100 0 0 3.63
4/19/2017 3:00 AM 65 100 0 0 3.8
4/19/2017 4:00 AM 65 100 0 0 3.57
4/19/2017 5:00 AM 65 100 0 0 3.26
4/19/2017 6:00 AM 65 100 0 0 2.84
4/19/2017 7:00 AM 65 100 0 0 2.85
4/19/2017 8:00 AM 65 100 0.05 0 3.31
4/19/2017 9:00 AM 65 100 0.35 0 3.71
4/19/2017 10:00 AM 67 99 0.98 0 5.49
4/19/2017 11:00 AM 70 92 1.54 0 5.38
4/19/2017 12:00 PM 72 83 1.82 0 6.15
4/19/2017 1:00 PM 74 73 2.44 0 5.56
4/19/2017 2:00 PM 77 63 2.91 0 6.26
4/19/2017 3:00 PM 78 58 2.4 0 5.81
4/19/2017 4:00 PM 80 53 2.73 0 6.06
4/19/2017 5:00 PM 80 55 1.35 0 6.6
4/19/2017 6:00 PM 79 55 0.8 0 6.04
4/19/2017 7:00 PM 78 61 0.63 0 6.35
4/19/2017 8:00 PM 76 67 0.1 0 5.04
4/19/2017 9:00 PM 73 79 0 0 3.55
4/19/2017 10:00 PM 71 98 0 0 4.42
4/19/2017 11:00 PM 70 99 0 0 4.84
Data Summary 70 84 18.10 0.00 4.68